createdAt,value
2023-05-11T00:01:31.436Z,77150.06
2023-05-11T00:03:04.884Z,77146.09
2023-05-11T00:04:37.921Z,77156.00
2023-05-11T00:06:11.192Z,77169.84
2023-05-11T00:07:44.499Z,77169.84
2023-05-11T00:09:17.869Z,77163.91
2023-05-11T00:10:51.486Z,77165.88
2023-05-11T00:12:24.602Z,77179.72
2023-05-11T00:13:57.822Z,77183.69
2023-05-11T00:15:31.792Z,77183.69
2023-05-11T00:17:05.273Z,77189.59
2023-05-11T00:18:38.895Z,77193.56
2023-05-11T00:20:12.142Z,77211.38
2023-05-11T00:21:45.459Z,77225.22
2023-05-11T00:23:18.572Z,77229.16
2023-05-11T00:24:51.806Z,77235.09
2023-05-11T00:26:25.031Z,77229.16
2023-05-11T00:27:58.965Z,77231.16
2023-05-11T00:29:32.613Z,77225.22
2023-05-11T00:31:06.359Z,77229.16
2023-05-11T00:32:39.661Z,77233.13
2023-05-11T00:34:13.118Z,77239.06
2023-05-11T00:35:46.361Z,77241.03
2023-05-11T00:37:19.408Z,77239.06
2023-05-11T00:38:53.219Z,77241.03
2023-05-11T00:40:27.641Z,77237.06
2023-05-11T00:42:01.230Z,77243.00
2023-05-11T00:43:34.975Z,77268.72
2023-05-11T00:45:08.538Z,77248.94
2023-05-11T00:46:43.041Z,77233.13
2023-05-11T00:48:16.803Z,77223.22
2023-05-11T00:49:53.063Z,77211.38
2023-05-11T00:51:26.630Z,77199.50
2023-05-11T00:53:00.616Z,77248.94
2023-05-11T00:54:33.939Z,77173.78
2023-05-11T00:56:07.988Z,77157.97
2023-05-11T00:57:41.377Z,77074.91
2023-05-11T00:59:14.873Z,77003.72
2023-05-11T01:00:48.591Z,76948.34
2023-05-11T01:02:22.215Z,76904.84
2023-05-11T01:03:58.280Z,76841.56
2023-05-11T01:05:45.275Z,76786.19
2023-05-11T01:07:47.775Z,76764.44
2023-05-11T01:09:39.129Z,76732.78
2023-05-11T01:11:44.110Z,76715.00
2023-05-11T01:13:32.655Z,76738.72
2023-05-11T01:15:26.091Z,76752.56
2023-05-11T01:17:07.468Z,76671.50
2023-05-11T01:18:53.293Z,76612.16
2023-05-11T01:20:29.863Z,76544.94
2023-05-11T01:22:27.577Z,76501.44
2023-05-11T01:24:24.194Z,76438.16
2023-05-11T01:26:28.564Z,76402.56
2023-05-11T01:28:27.024Z,76311.63
2023-05-11T01:30:03.386Z,76279.97
2023-05-11T01:31:40.583Z,76252.28
2023-05-11T01:33:16.924Z,76204.84
2023-05-11T01:35:01.564Z,76179.13
2023-05-11T01:36:38.151Z,76165.31
2023-05-11T01:38:14.748Z,76145.53
2023-05-11T01:39:57.915Z,76113.91
2023-05-11T01:41:34.409Z,76046.66
2023-05-11T01:43:14.252Z,76020.97
2023-05-11T01:44:52.469Z,75987.34
2023-05-11T01:46:32.762Z,75985.38
2023-05-11T01:48:14.380Z,75973.50
2023-05-11T01:49:48.462Z,75963.63
2023-05-11T01:51:22.756Z,75872.69
2023-05-11T01:52:57.706Z,75852.91
2023-05-11T01:54:32.659Z,75829.19
2023-05-11T01:56:08.057Z,75793.59
2023-05-11T01:57:41.294Z,75773.84
2023-05-11T01:59:15.514Z,75761.97
2023-05-11T02:00:49.855Z,75728.38
2023-05-11T02:02:25.781Z,75698.72
2023-05-11T02:04:02.829Z,75663.13
2023-05-11T02:05:37.178Z,75678.94
2023-05-11T02:07:12.364Z,75605.78
2023-05-11T02:08:47.239Z,75584.06
2023-05-11T02:10:21.517Z,75548.47
2023-05-11T02:11:57.848Z,75491.13
2023-05-11T02:13:33.754Z,75463.47
2023-05-11T02:15:09.486Z,75419.97
2023-05-11T02:16:43.206Z,75406.13
2023-05-11T02:18:17.716Z,75386.38
2023-05-11T02:19:52.412Z,75354.72
2023-05-11T02:21:28.621Z,75315.19
2023-05-11T02:23:03.004Z,75315.19
2023-05-11T02:24:37.090Z,75285.53
2023-05-11T02:26:12.887Z,75216.38
2023-05-11T02:27:46.344Z,75224.28
2023-05-11T02:29:19.938Z,75236.13
2023-05-11T02:30:57.193Z,75228.22
2023-05-11T02:32:35.816Z,75216.38
2023-05-11T02:34:21.244Z,75261.81
2023-05-11T02:35:57.796Z,75176.81
2023-05-11T02:37:42.525Z,75119.50
2023-05-11T02:39:20.076Z,75095.78
2023-05-11T02:40:58.121Z,75101.72
2023-05-11T02:42:36.846Z,75085.91
2023-05-11T02:44:17.523Z,75099.75
2023-05-11T02:45:54.409Z,75079.97
2023-05-11T02:47:40.113Z,75050.31
2023-05-11T02:49:16.006Z,75066.13
2023-05-11T02:50:51.929Z,75153.09
2023-05-11T02:52:27.984Z,75068.09
2023-05-11T02:54:02.238Z,75026.59
2023-05-11T02:55:39.071Z,74979.16
2023-05-11T02:57:12.512Z,74933.69
2023-05-11T02:58:46.132Z,74935.69
2023-05-11T03:00:24.658Z,74888.25
2023-05-11T03:01:58.826Z,74888.25
2023-05-11T03:03:32.493Z,74911.97
2023-05-11T03:05:06.384Z,74935.69
2023-05-11T03:06:39.718Z,74856.63
2023-05-11T03:08:14.701Z,74890.22
2023-05-11T03:09:48.474Z,74825.00
2023-05-11T03:11:22.564Z,74832.91
2023-05-11T03:12:56.644Z,74872.44
2023-05-11T03:14:34.349Z,74793.38
2023-05-11T03:16:09.602Z,74813.13
2023-05-11T03:17:43.933Z,74722.22
2023-05-11T03:19:20.123Z,74704.44
2023-05-11T03:20:53.720Z,74698.50
2023-05-11T03:22:28.560Z,74696.53
2023-05-11T03:24:02.424Z,74655.00
2023-05-11T03:25:39.180Z,74702.44
2023-05-11T03:27:12.866Z,74666.88
2023-05-11T03:28:50.705Z,74658.97
2023-05-11T03:30:24.553Z,74702.44
2023-05-11T03:32:01.419Z,74645.13
2023-05-11T03:33:37.944Z,74556.19
2023-05-11T03:35:13.244Z,74534.44
2023-05-11T03:36:49.508Z,74532.47
2023-05-11T03:38:25.020Z,74500.84
2023-05-11T03:40:00.680Z,74510.75
2023-05-11T03:41:41.599Z,74587.81
2023-05-11T03:43:19.649Z,74528.53
2023-05-11T03:45:00.178Z,74566.06
2023-05-11T03:46:36.358Z,74564.09
2023-05-11T03:48:14.982Z,74633.28
2023-05-11T03:49:49.512Z,74625.38
2023-05-11T03:51:23.075Z,74579.91
2023-05-11T03:52:56.862Z,74489.00
2023-05-11T03:54:31.842Z,74605.59
2023-05-11T03:56:07.693Z,74471.22
2023-05-11T03:57:41.353Z,74494.94
2023-05-11T03:59:18.052Z,74449.47
2023-05-11T04:00:51.653Z,74477.13
2023-05-11T04:02:24.994Z,74568.06
2023-05-11T04:03:59.025Z,74593.75
2023-05-11T04:05:32.456Z,74512.72
2023-05-11T04:07:08.680Z,74516.66
2023-05-11T04:08:41.816Z,74544.34
2023-05-11T04:10:15.376Z,74585.84
2023-05-11T04:11:48.529Z,74560.16
2023-05-11T04:13:21.887Z,74627.34
2023-05-11T04:14:54.902Z,74615.47
2023-05-11T04:16:28.250Z,74564.09
2023-05-11T04:18:01.501Z,74635.25
2023-05-11T04:19:34.887Z,74643.16
2023-05-11T04:21:08.287Z,74700.47
2023-05-11T04:22:41.475Z,74684.66
2023-05-11T04:24:14.743Z,74647.09
2023-05-11T04:25:47.974Z,74696.53
2023-05-11T04:27:21.163Z,74655.00
2023-05-11T04:28:57.224Z,74657.00
2023-05-11T04:30:30.212Z,74573.97
2023-05-11T04:32:03.494Z,74520.63
2023-05-11T04:33:36.713Z,74524.56
2023-05-11T04:35:11.126Z,74526.53
2023-05-11T04:36:51.418Z,74471.22
2023-05-11T04:38:25.668Z,74512.72
2023-05-11T04:39:59.883Z,74528.53
2023-05-11T04:41:33.115Z,74494.94
2023-05-11T04:43:07.087Z,74560.16
2023-05-11T04:44:40.265Z,74506.78
2023-05-11T04:46:13.511Z,74556.19
2023-05-11T04:47:46.944Z,74666.88
2023-05-11T04:49:20.567Z,74664.91
2023-05-11T04:50:57.379Z,74597.69
2023-05-11T04:52:35.037Z,74627.34
2023-05-11T04:54:09.249Z,74570.03
2023-05-11T04:55:42.480Z,74538.41
2023-05-11T04:57:15.717Z,74579.91
2023-05-11T04:58:49.054Z,74457.38
2023-05-11T05:00:22.744Z,74396.09
2023-05-11T05:01:55.989Z,74398.09
2023-05-11T05:03:31.644Z,74496.91
2023-05-11T05:05:04.914Z,74621.41
2023-05-11T05:06:38.615Z,74512.72
2023-05-11T05:08:11.994Z,74597.69
2023-05-11T05:09:45.606Z,74544.34
2023-05-11T05:11:21.997Z,74504.81
2023-05-11T05:12:55.201Z,74431.69
2023-05-11T05:14:28.376Z,74376.34
2023-05-11T05:16:01.814Z,74348.69
2023-05-11T05:17:34.899Z,74283.47
2023-05-11T05:19:10.532Z,74196.50
2023-05-11T05:20:43.634Z,74220.22
2023-05-11T05:22:17.229Z,74281.47
2023-05-11T05:23:50.494Z,74358.56
2023-05-11T05:25:23.830Z,74413.91
2023-05-11T05:26:56.941Z,74421.81
2023-05-11T05:28:30.354Z,74445.50
2023-05-11T05:30:03.797Z,74396.09
2023-05-11T05:31:37.256Z,74477.13
2023-05-11T05:33:11.240Z,74496.91
2023-05-11T05:34:47.363Z,74366.47
2023-05-11T05:36:21.282Z,74435.63
2023-05-11T05:37:54.619Z,74437.63
2023-05-11T05:39:28.026Z,74504.81
2023-05-11T05:41:03.095Z,74554.22
2023-05-11T05:42:40.007Z,74492.94
2023-05-11T05:44:15.501Z,74413.91
2023-05-11T05:45:49.412Z,74394.13
2023-05-11T05:47:23.080Z,74348.69
2023-05-11T05:48:57.185Z,74374.38
2023-05-11T05:50:30.458Z,74319.03
2023-05-11T05:52:03.560Z,74485.03
2023-05-11T05:53:38.071Z,74473.19
2023-05-11T05:55:13.294Z,74457.38
2023-05-11T05:56:48.006Z,74390.19
2023-05-11T05:58:21.271Z,74516.66
2023-05-11T05:59:56.104Z,74475.16
2023-05-11T06:01:29.464Z,74431.69
2023-05-11T06:03:02.880Z,74356.59
2023-05-11T06:04:36.481Z,74358.56
2023-05-11T06:06:10.049Z,74277.53
2023-05-11T06:07:49.318Z,74291.38
2023-05-11T06:09:27.813Z,74439.59
2023-05-11T06:11:01.344Z,74313.09
2023-05-11T06:12:36.300Z,74441.56
2023-05-11T06:14:09.639Z,74465.28
2023-05-11T06:15:43.833Z,74552.25
2023-05-11T06:17:31.127Z,74481.09
2023-05-11T06:19:04.943Z,74643.16
2023-05-11T06:20:38.335Z,74745.94
2023-05-11T06:22:12.360Z,74635.25
2023-05-11T06:23:45.623Z,74575.97
2023-05-11T06:25:19.372Z,74722.22
2023-05-11T06:26:54.222Z,74797.31
2023-05-11T06:28:28.120Z,74801.28
2023-05-11T06:30:05.312Z,74749.88
2023-05-11T06:31:44.192Z,74710.34
2023-05-11T06:33:17.687Z,74791.38
2023-05-11T06:34:51.857Z,74906.03
2023-05-11T06:36:25.763Z,74937.66
2023-05-11T06:37:59.276Z,74789.41
2023-05-11T06:39:35.454Z,74825.00
2023-05-11T06:41:11.600Z,74911.97
2023-05-11T06:42:45.164Z,75006.84
2023-05-11T06:44:18.917Z,74979.16
2023-05-11T06:45:52.579Z,75042.41
2023-05-11T06:47:27.222Z,75089.84
2023-05-11T06:49:01.219Z,75093.81
2023-05-11T06:50:34.788Z,75038.47
2023-05-11T06:52:08.235Z,75076.00
2023-05-11T06:53:41.800Z,75078.00
2023-05-11T06:55:15.203Z,75145.19
2023-05-11T06:56:50.102Z,75143.22
2023-05-11T06:58:23.716Z,75119.50
2023-05-11T06:59:57.081Z,75079.97
2023-05-11T07:01:30.306Z,75121.47
2023-05-11T07:03:03.896Z,75121.47
2023-05-11T07:04:37.539Z,75204.50
2023-05-11T07:06:11.986Z,75168.91
2023-05-11T07:07:45.341Z,75216.38
2023-05-11T07:09:22.019Z,75202.53
2023-05-11T07:10:55.247Z,75178.81
2023-05-11T07:12:28.269Z,75101.72
2023-05-11T07:14:01.708Z,75139.28
2023-05-11T07:15:35.457Z,75131.38
2023-05-11T07:17:08.666Z,75125.44
2023-05-11T07:18:41.887Z,75153.09
2023-05-11T07:20:15.167Z,75111.59
2023-05-11T07:21:49.024Z,75123.47
2023-05-11T07:23:22.226Z,75145.19
2023-05-11T07:24:55.574Z,75113.56
2023-05-11T07:26:28.591Z,75117.53
2023-05-11T07:28:02.073Z,75083.94
2023-05-11T07:29:35.389Z,75022.66
2023-05-11T07:31:08.614Z,75026.59
2023-05-11T07:32:41.946Z,74955.44
2023-05-11T07:34:15.448Z,74985.09
2023-05-11T07:35:48.819Z,75062.19
2023-05-11T07:37:22.161Z,75133.34
2023-05-11T07:38:55.593Z,75097.75
2023-05-11T07:40:29.521Z,75050.31
2023-05-11T07:42:08.696Z,75070.09
2023-05-11T07:43:42.020Z,75034.50
2023-05-11T07:45:15.116Z,75032.53
2023-05-11T07:46:48.481Z,75014.75
2023-05-11T07:48:22.050Z,75046.38
2023-05-11T07:49:55.488Z,75034.50
2023-05-11T07:51:29.148Z,75115.56
2023-05-11T07:53:02.708Z,75070.09
2023-05-11T07:54:35.910Z,75081.94
2023-05-11T07:56:09.397Z,75093.81
2023-05-11T07:57:42.695Z,75038.47
2023-05-11T07:59:16.246Z,75010.78
2023-05-11T08:00:49.857Z,75040.44
2023-05-11T08:02:23.220Z,75078.00
2023-05-11T08:03:56.431Z,75081.94
2023-05-11T08:05:33.531Z,75113.56
2023-05-11T08:07:06.743Z,75101.72
2023-05-11T08:08:40.042Z,75085.91
2023-05-11T08:10:13.806Z,75121.47
2023-05-11T08:11:47.220Z,75078.00
2023-05-11T08:13:20.367Z,75078.00
2023-05-11T08:14:53.777Z,75079.97
2023-05-11T08:16:27.400Z,75115.56
2023-05-11T08:18:02.100Z,75054.28
2023-05-11T08:19:35.213Z,75034.50
2023-05-11T08:21:08.863Z,74963.34
2023-05-11T08:22:42.107Z,75002.88
2023-05-11T08:24:15.613Z,74951.50
2023-05-11T08:25:51.888Z,74915.91
2023-05-11T08:27:25.047Z,74900.09
2023-05-11T08:28:58.167Z,74923.81
2023-05-11T08:30:31.651Z,74917.88
2023-05-11T08:32:05.165Z,74981.13
2023-05-11T08:33:38.988Z,74955.44
2023-05-11T08:35:13.775Z,74888.25
2023-05-11T08:36:47.678Z,74927.78
2023-05-11T08:38:21.122Z,74931.72
2023-05-11T08:39:54.355Z,74880.34
2023-05-11T08:41:27.639Z,74828.94
2023-05-11T08:43:02.685Z,74769.66
2023-05-11T08:44:38.156Z,74830.91
2023-05-11T08:46:14.593Z,74832.91
2023-05-11T08:47:49.510Z,74840.81
2023-05-11T08:49:23.224Z,74797.31
2023-05-11T08:51:00.026Z,74753.84
2023-05-11T08:52:33.221Z,74757.78
2023-05-11T08:54:08.079Z,74805.22
2023-05-11T08:55:43.485Z,74813.13
2023-05-11T08:57:17.020Z,74842.78
2023-05-11T08:58:51.071Z,74864.53
2023-05-11T09:00:24.824Z,74868.47
2023-05-11T09:02:02.519Z,74809.19
2023-05-11T09:03:37.595Z,74825.00
2023-05-11T09:05:11.768Z,74779.53
2023-05-11T09:06:44.930Z,74724.19
2023-05-11T09:08:19.867Z,74658.97
2023-05-11T09:09:53.270Z,74623.38
2023-05-11T09:11:28.415Z,74658.97
2023-05-11T09:13:01.484Z,74730.13
2023-05-11T09:14:34.736Z,74653.03
2023-05-11T09:16:16.254Z,74635.25
2023-05-11T09:17:56.896Z,74668.84
2023-05-11T09:19:33.518Z,74688.63
2023-05-11T09:21:07.932Z,74714.31
2023-05-11T09:22:47.079Z,74702.44
2023-05-11T09:24:21.477Z,74694.53
2023-05-11T09:25:55.506Z,74690.59
2023-05-11T09:27:33.194Z,74702.44
2023-05-11T09:29:09.266Z,74645.13
2023-05-11T09:30:42.258Z,74662.91
2023-05-11T09:32:17.043Z,74655.00
2023-05-11T09:33:50.414Z,74657.00
2023-05-11T09:35:34.555Z,74777.56
2023-05-11T09:37:17.833Z,74858.59
2023-05-11T09:38:57.353Z,74864.53
2023-05-11T09:40:34.517Z,74876.38
2023-05-11T09:42:19.333Z,74860.56
2023-05-11T09:43:53.373Z,74864.53
2023-05-11T09:45:43.850Z,74817.09
2023-05-11T09:47:18.850Z,74771.63
2023-05-11T09:50:57.216Z,74785.47
2023-05-11T09:52:31.013Z,74811.16
2023-05-11T09:54:24.616Z,74838.81
2023-05-11T09:55:58.184Z,74856.63
2023-05-11T09:57:32.215Z,74888.25
2023-05-11T09:59:05.283Z,74919.88
2023-05-11T10:00:51.758Z,74923.81
2023-05-11T10:02:28.013Z,74900.09
2023-05-11T10:04:21.205Z,74878.34
2023-05-11T10:06:01.807Z,74900.09
2023-05-11T10:07:36.490Z,74906.03
2023-05-11T10:09:10.707Z,74868.47
2023-05-11T10:10:47.051Z,74834.88
2023-05-11T10:12:24.224Z,74880.34
2023-05-11T10:13:58.168Z,74894.16
2023-05-11T10:15:35.643Z,74884.28
2023-05-11T10:17:10.738Z,74892.19
2023-05-11T10:18:45.116Z,74937.66
2023-05-11T10:20:19.870Z,74937.66
2023-05-11T10:21:56.376Z,74917.88
2023-05-11T10:23:34.134Z,74911.97
2023-05-11T10:25:10.442Z,74868.47
2023-05-11T10:26:44.639Z,74844.75
2023-05-11T10:28:18.252Z,74805.22
2023-05-11T10:29:52.001Z,74793.38
2023-05-11T10:31:28.352Z,74821.03
2023-05-11T10:33:02.493Z,74832.91
2023-05-11T10:34:35.831Z,74789.41
2023-05-11T10:36:09.760Z,74777.56
2023-05-11T10:37:43.769Z,74779.53
2023-05-11T10:39:17.709Z,74747.91
2023-05-11T10:40:54.502Z,74751.84
2023-05-11T10:42:45.626Z,74743.97
2023-05-11T10:44:57.442Z,74738.03
2023-05-11T10:46:54.004Z,74706.41
2023-05-11T10:48:37.176Z,74759.75
2023-05-11T10:50:19.763Z,74777.56
2023-05-11T10:51:59.325Z,74809.19
2023-05-11T10:53:51.109Z,74787.44
2023-05-11T10:55:36.661Z,74813.13
2023-05-11T10:57:10.537Z,74809.19
2023-05-11T10:59:21.166Z,74797.31
2023-05-11T11:01:23.938Z,74828.94
2023-05-11T11:02:59.441Z,74757.78
2023-05-11T11:04:52.396Z,74787.44
2023-05-11T11:06:26.758Z,74787.44
2023-05-11T11:08:07.668Z,74880.34
2023-05-11T11:09:56.913Z,74890.22
2023-05-11T11:11:39.424Z,74878.34
2023-05-11T11:13:15.480Z,74898.13
2023-05-11T11:15:00.382Z,74858.59
2023-05-11T11:16:34.766Z,74832.91
2023-05-11T11:18:24.422Z,74811.16
2023-05-11T11:19:59.106Z,74757.78
2023-05-11T11:21:43.032Z,74738.03
2023-05-11T11:23:41.700Z,74686.63
2023-05-11T11:25:16.800Z,74753.84
2023-05-11T11:26:50.876Z,74821.03
2023-05-11T11:28:24.044Z,74882.31
2023-05-11T11:30:20.356Z,74959.41
2023-05-11T11:31:53.453Z,74915.91
2023-05-11T11:33:26.724Z,74900.09
2023-05-11T11:35:00.155Z,74923.81
2023-05-11T11:36:59.090Z,74921.84
2023-05-11T11:38:33.579Z,74904.06
2023-05-11T11:40:14.818Z,74902.06
2023-05-11T11:42:10.545Z,74878.34
2023-05-11T11:43:47.121Z,74844.75
2023-05-11T11:45:32.829Z,74860.56
2023-05-11T11:47:16.954Z,74834.88
2023-05-11T11:48:50.194Z,74825.00
2023-05-11T11:50:28.970Z,74832.91
2023-05-11T11:52:04.459Z,74809.19
2023-05-11T11:53:45.116Z,74850.69
2023-05-11T11:55:51.779Z,74906.03
2023-05-11T11:57:34.331Z,74900.09
2023-05-11T11:59:10.803Z,74880.34
2023-05-11T12:00:47.676Z,74878.34
2023-05-11T12:02:21.616Z,74862.53
2023-05-11T12:04:19.611Z,74880.34
2023-05-11T12:06:00.769Z,74884.28
2023-05-11T12:07:43.093Z,74846.72
2023-05-11T12:09:19.747Z,74840.81
2023-05-11T12:10:56.626Z,74825.00
2023-05-11T12:12:32.122Z,74801.28
2023-05-11T12:14:06.780Z,74803.25
2023-05-11T12:15:40.633Z,74848.72
2023-05-11T12:17:15.869Z,74825.00
2023-05-11T12:18:54.495Z,74819.06
2023-05-11T12:20:30.149Z,74828.94
2023-05-11T12:22:03.385Z,74884.28
2023-05-11T12:23:55.752Z,74915.91
2023-05-11T12:25:29.278Z,74935.69
2023-05-11T12:27:03.791Z,74911.97
2023-05-11T12:28:37.036Z,74923.81
2023-05-11T12:30:19.104Z,74915.91
2023-05-11T12:31:52.419Z,74909.97
2023-05-11T12:33:26.246Z,74892.19
2023-05-11T12:35:02.034Z,74868.47
2023-05-11T12:36:42.375Z,74876.38
2023-05-11T12:38:15.640Z,74864.53
2023-05-11T12:39:55.438Z,74844.75
2023-05-11T12:41:32.935Z,74815.09
2023-05-11T12:43:06.430Z,74801.28
2023-05-11T12:44:41.525Z,74783.47
2023-05-11T12:46:15.095Z,74767.66
2023-05-11T12:47:52.951Z,74777.56
2023-05-11T12:49:28.181Z,74825.00
2023-05-11T12:51:01.314Z,74852.66
2023-05-11T12:52:34.331Z,74819.06
2023-05-11T12:54:07.579Z,74813.13
2023-05-11T12:55:40.756Z,74805.22
2023-05-11T12:57:31.435Z,74797.31
2023-05-11T12:59:04.927Z,74785.47
2023-05-11T13:00:38.491Z,74777.56
2023-05-11T13:02:18.943Z,74773.59
2023-05-11T13:03:52.769Z,74817.09
2023-05-11T13:05:27.529Z,74838.81
2023-05-11T13:07:01.114Z,74813.13
2023-05-11T13:08:44.560Z,74801.28
2023-05-11T13:10:27.282Z,74789.41
2023-05-11T13:12:20.181Z,74813.13
2023-05-11T13:13:58.563Z,74862.53
2023-05-11T13:15:32.054Z,74864.53
2023-05-11T13:17:05.631Z,74860.56
2023-05-11T13:18:38.806Z,74850.69
2023-05-11T13:20:21.038Z,74848.72
2023-05-11T13:21:55.284Z,74880.34
2023-05-11T13:23:31.084Z,74864.53
2023-05-11T13:25:04.750Z,74890.22
2023-05-11T13:26:38.504Z,74884.28
2023-05-11T13:28:11.900Z,74876.38
2023-05-11T13:29:45.169Z,74900.09
2023-05-11T13:31:20.030Z,74886.25
2023-05-11T13:32:53.709Z,74902.06
2023-05-11T13:34:27.232Z,74896.16
2023-05-11T13:36:02.207Z,74898.13
2023-05-11T13:37:35.940Z,74892.19
2023-05-11T13:39:09.227Z,74886.25
2023-05-11T13:40:42.682Z,74923.81
2023-05-11T13:42:16.329Z,74939.63
2023-05-11T13:43:51.198Z,74955.44
2023-05-11T13:45:24.863Z,74975.22
2023-05-11T13:46:58.065Z,74967.31
2023-05-11T13:48:32.546Z,74975.22
2023-05-11T13:50:06.476Z,75022.66
2023-05-11T13:51:39.912Z,74989.03
2023-05-11T13:53:13.710Z,74994.97
2023-05-11T13:54:46.955Z,75002.88
2023-05-11T13:56:21.641Z,74989.03
2023-05-11T13:57:54.918Z,74985.09
2023-05-11T13:59:28.246Z,74977.19
2023-05-11T14:01:07.729Z,74987.06
2023-05-11T14:02:41.826Z,74989.03
2023-05-11T14:04:15.470Z,75010.78
2023-05-11T14:05:49.471Z,75038.47
2023-05-11T14:07:25.505Z,74998.94
2023-05-11T14:09:05.427Z,74991.03
2023-05-11T14:10:38.584Z,75000.91
2023-05-11T14:12:11.927Z,74969.28
2023-05-11T14:13:45.948Z,74963.34
2023-05-11T14:15:19.466Z,74959.41
2023-05-11T14:16:53.269Z,74939.63
2023-05-11T14:20:23.376Z,74963.34
2023-05-11T14:21:57.304Z,74949.50
2023-05-11T14:23:31.266Z,74947.53
2023-05-11T14:25:11.305Z,74931.72
2023-05-11T14:26:47.529Z,74898.13
2023-05-11T14:28:21.196Z,74911.97
2023-05-11T14:29:55.289Z,74911.97
2023-05-11T14:31:28.398Z,74919.88
2023-05-11T14:33:01.840Z,74943.59
2023-05-11T14:34:35.214Z,74935.69
2023-05-11T14:36:10.177Z,74939.63
2023-05-11T14:37:43.760Z,74953.47
2023-05-11T14:39:17.873Z,74959.41
2023-05-11T14:40:54.244Z,74957.41
2023-05-11T14:42:27.250Z,74967.31
2023-05-11T14:44:00.380Z,74983.13
2023-05-11T14:45:34.321Z,74998.94
2023-05-11T14:47:08.989Z,75002.88
2023-05-11T14:48:42.872Z,75000.91
2023-05-11T14:50:16.455Z,75018.69
2023-05-11T14:51:49.930Z,75034.50
2023-05-11T14:53:23.216Z,75030.56
2023-05-11T14:55:00.126Z,75042.41
2023-05-11T14:56:34.235Z,75062.19
2023-05-11T14:58:11.497Z,75081.94
2023-05-11T14:59:58.351Z,75081.94
2023-05-11T15:01:36.877Z,75089.84
2023-05-11T15:03:11.305Z,75111.59
2023-05-11T15:04:44.591Z,75105.66
2023-05-11T15:06:22.943Z,75109.63
2023-05-11T15:07:59.981Z,75125.44
2023-05-11T15:09:36.775Z,75123.47
2023-05-11T15:11:13.677Z,75131.38
2023-05-11T15:12:47.542Z,75129.38
2023-05-11T15:14:27.169Z,75141.25
2023-05-11T15:16:07.055Z,75141.25
2023-05-11T15:17:40.801Z,75151.13
2023-05-11T15:19:17.613Z,75164.97
2023-05-11T15:20:53.329Z,75164.97
2023-05-11T15:22:36.093Z,75182.75
2023-05-11T15:24:11.044Z,75198.56
2023-05-11T15:25:51.120Z,75200.53
2023-05-11T15:27:24.916Z,75228.22
2023-05-11T15:28:58.692Z,75206.47
2023-05-11T15:30:34.936Z,75234.16
2023-05-11T15:32:08.807Z,75224.28
2023-05-11T15:33:42.115Z,75230.19
2023-05-11T15:35:17.539Z,75244.03
2023-05-11T15:36:51.179Z,75248.00
2023-05-11T15:38:28.392Z,75251.94
2023-05-11T15:40:02.358Z,75263.81
2023-05-11T15:41:36.123Z,75269.72
2023-05-11T15:43:09.580Z,75271.72
2023-05-11T15:44:43.086Z,75279.63
2023-05-11T15:46:19.829Z,75289.50
2023-05-11T15:47:55.624Z,75303.34
2023-05-11T15:49:31.309Z,75295.44
2023-05-11T15:51:04.897Z,75299.38
2023-05-11T15:52:38.516Z,75303.34
2023-05-11T15:54:12.126Z,75303.34
2023-05-11T15:55:46.798Z,75313.22
2023-05-11T15:57:19.997Z,75317.19
2023-05-11T15:58:53.170Z,75323.09
2023-05-11T16:00:26.805Z,75325.09
2023-05-11T16:02:00.349Z,75327.06
2023-05-11T16:03:34.273Z,75329.03
2023-05-11T16:05:07.903Z,75331.00
2023-05-11T16:06:41.814Z,75338.91
2023-05-11T16:08:16.226Z,75338.91
2023-05-11T16:10:10.071Z,75346.81
2023-05-11T16:11:43.947Z,75350.78
2023-05-11T16:13:17.384Z,75358.69
2023-05-11T16:14:51.186Z,75366.59
2023-05-11T16:16:25.441Z,75374.50
2023-05-11T16:18:00.079Z,75376.47
2023-05-11T16:19:34.975Z,75384.38
2023-05-11T16:21:08.564Z,75390.31
2023-05-11T16:22:41.576Z,75402.19
2023-05-11T16:24:15.174Z,75394.28
2023-05-11T16:25:48.342Z,75398.22
2023-05-11T16:27:21.455Z,75402.19
2023-05-11T16:28:55.122Z,75404.16
2023-05-11T16:30:28.931Z,75406.13
2023-05-11T16:32:34.531Z,75410.09
2023-05-11T16:34:08.029Z,75421.94
2023-05-11T16:35:41.393Z,75431.84
2023-05-11T16:37:14.447Z,75439.75
2023-05-11T16:38:47.312Z,75443.69
2023-05-11T16:40:21.866Z,75447.66
2023-05-11T16:41:55.378Z,75457.53
2023-05-11T16:43:28.568Z,75465.44
2023-05-11T16:45:02.171Z,75475.31
2023-05-11T16:46:35.661Z,75487.19
2023-05-11T16:48:09.605Z,75491.13
2023-05-11T16:49:43.308Z,75508.94
2023-05-11T16:51:16.567Z,75516.84
2023-05-11T16:52:50.074Z,75520.78
2023-05-11T16:54:23.668Z,75520.78
2023-05-11T16:55:57.460Z,75536.59
2023-05-11T16:57:30.679Z,75524.75
2023-05-11T16:59:04.054Z,75528.69
2023-05-11T17:00:38.028Z,75520.78
2023-05-11T17:02:11.464Z,75524.75
2023-05-11T17:03:45.048Z,75532.66
2023-05-11T17:05:20.121Z,75550.44
2023-05-11T17:06:53.932Z,75534.63
2023-05-11T17:08:28.725Z,75548.47
2023-05-11T17:10:02.198Z,75566.25
2023-05-11T17:11:35.569Z,75550.44
2023-05-11T17:13:08.702Z,75564.28
2023-05-11T17:14:42.172Z,75560.31
2023-05-11T17:16:15.358Z,75584.06
2023-05-11T17:17:48.700Z,75570.22
2023-05-11T17:19:22.564Z,75584.06
2023-05-11T17:20:56.452Z,75595.91
2023-05-11T17:22:30.287Z,75611.72
2023-05-11T17:24:03.782Z,75619.63
2023-05-11T17:25:37.682Z,75639.41
2023-05-11T17:27:10.867Z,75623.59
2023-05-11T17:28:44.511Z,75635.44
2023-05-11T17:30:18.564Z,75627.53
2023-05-11T17:31:52.879Z,75601.84
2023-05-11T17:33:26.577Z,75635.44
2023-05-11T17:35:01.246Z,75599.88
2023-05-11T17:36:36.102Z,75635.44
2023-05-11T17:38:09.681Z,75631.50
2023-05-11T17:39:42.973Z,75605.78
2023-05-11T17:41:16.227Z,75595.91
2023-05-11T17:42:49.997Z,75607.78
2023-05-11T17:44:23.658Z,75641.38
2023-05-11T17:45:57.091Z,75718.47
2023-05-11T17:47:30.655Z,75754.06
2023-05-11T17:49:04.341Z,75752.09
2023-05-11T17:50:37.906Z,75769.88
2023-05-11T17:52:11.055Z,75742.19
2023-05-11T17:53:44.466Z,75740.22
2023-05-11T17:55:17.815Z,75734.28
2023-05-11T17:56:51.499Z,75732.31
2023-05-11T17:58:24.845Z,75724.41
2023-05-11T17:59:57.961Z,75728.38
2023-05-11T18:01:32.018Z,75716.50
2023-05-11T18:03:06.073Z,75714.53
2023-05-11T18:04:39.135Z,75718.47
2023-05-11T18:06:12.555Z,75726.38
2023-05-11T18:07:46.178Z,75720.47
2023-05-11T18:09:20.504Z,75720.47
2023-05-11T18:10:54.066Z,75720.47
2023-05-11T18:12:27.424Z,75714.53
2023-05-11T18:14:00.843Z,75714.53
2023-05-11T18:15:35.301Z,75714.53
2023-05-11T18:17:09.227Z,75714.53
2023-05-11T18:18:43.043Z,75714.53
2023-05-11T18:20:16.945Z,75726.38
2023-05-11T18:21:52.068Z,75738.25
2023-05-11T18:23:25.947Z,75760.00
2023-05-11T18:24:59.043Z,75758.03
2023-05-11T18:26:32.146Z,75758.03
2023-05-11T18:28:05.805Z,75761.97
2023-05-11T18:29:39.774Z,75767.91
2023-05-11T18:31:13.207Z,75767.91
2023-05-11T18:32:46.723Z,75769.88
2023-05-11T18:34:19.892Z,75765.94
2023-05-11T18:35:53.463Z,75758.03
2023-05-11T18:37:28.749Z,75754.06
2023-05-11T18:39:15.023Z,75754.06
2023-05-11T18:40:49.161Z,75752.09
2023-05-11T18:42:22.509Z,75750.13
2023-05-11T18:43:55.971Z,75750.13
2023-05-11T18:45:30.853Z,75752.09
2023-05-11T18:47:08.327Z,75754.06
2023-05-11T18:48:41.429Z,75769.88
2023-05-11T18:50:15.105Z,75760.00
2023-05-11T18:51:49.123Z,75765.94